Time;durP1;ratioP1;P1;durP2;ratioP2;P2;SDS_P1;SDS_P2;PMS_P1;PMS_P2;Temp;Humidity;BMP_temperature;BMP_pressure;BME280_temperature;BME280_humidity;BME280_pressure;Samples;Min_cycle;Max_cycle;Signal;HPM_P1;HPM_P2
2022/06/12 00:00:30;;;;;;;;;;;;;;;22.07;52.99;100087.38;2077092;28;19952;-53
2022/06/12 00:01:31;;;;;;;;;;;;;;;22.07;53.00;100087.38;2083271;28;19927;-53
2022/06/12 00:02:31;;;;;;;;;;;;;;;22.08;53.02;100082.75;2083913;28;19970;-53
2022/06/12 00:03:33;;;;;;;;;;;;;;;22.08;53.03;100083.63;2085033;28;19971;-53
2022/06/12 00:04:33;;;;;;;;;;;;;;;22.08;52.82;100082.75;2084960;28;20283;-51
2022/06/12 00:05:35;;;;;;;;;;;;;;;22.08;52.93;100094.59;2085569;28;19966;-50
2022/06/12 00:06:35;;;;;;;;;;;;;;;22.08;52.89;100082.75;2082919;28;19956;-53
2022/06/12 00:07:35;;;;;;;;;;;;;;;22.08;52.89;100086.34;2083488;28;19928;-51
2022/06/12 00:08:38;;;;;;;;;;;;;;;22.09;52.70;100079.81;2080446;28;19955;-53
2022/06/12 00:09:38;;;;;;;;;;;;;;;22.09;52.93;100076.22;2082498;28;20028;-52
2022/06/12 00:10:40;;;;;;;;;;;;;;;22.08;52.73;100072.63;2085090;28;19917;-53
2022/06/12 00:11:41;;;;;;;;;;;;;;;22.09;52.90;100071.59;2085409;28;19917;-53
2022/06/12 00:12:43;;;;;;;;;;;;;;;22.09;52.74;100068.84;2084613;28;19912;-53
2022/06/12 00:13:45;;;;;;;;;;;;;;;22.08;52.79;100056.16;2085754;28;19916;-52
2022/06/12 00:14:45;;;;;;;;;;;;;;;22.08;52.90;100061.66;2082292;28;19917;-53
2022/06/12 00:15:47;;;;;;;;;;;;;;;22.08;52.86;100061.66;2085064;28;19917;-53
2022/06/12 00:16:47;;;;;;;;;;;;;;;22.08;52.77;100050.66;2083738;28;20259;-53
2022/06/12 00:17:48;;;;;;;;;;;;;;;22.08;52.97;100056.16;2088830;28;19930;-53
2022/06/12 00:18:49;;;;;;;;;;;;;;;22.08;53.00;100049.81;2088257;28;19917;-53
2022/06/12 00:19:50;;;;;;;;;;;;;;;22.08;52.92;100055.31;2083997;28;20327;-53
2022/06/12 00:21:10;;;;;;;;;;;;;;;22.08;53.06;100056.16;2082057;28;19923;-50
2022/06/12 00:22:11;;;;;;;;;;;;;;;22.07;52.91;100048.94;2087504;28;19974;-53
2022/06/12 00:23:13;;;;;;;;;;;;;;;22.08;52.94;100044.34;2092309;28;19916;-52
2022/06/12 00:24:14;;;;;;;;;;;;;;;22.08;53.17;100050.66;2079993;28;19909;-51
2022/06/12 00:25:16;;;;;;;;;;;;;;;22.07;53.13;100043.44;2082332;28;19983;-52
2022/06/12 00:26:24;;;;;;;;;;;;;;;22.07;53.03;100051.69;2084369;28;19916;-53
2022/06/12 00:27:25;;;;;;;;;;;;;;;22.07;53.18;100048.94;2074262;28;19917;-53
2022/06/12 00:28:25;;;;;;;;;;;;;;;22.07;53.13;100051.69;2075296;28;19913;-53
2022/06/12 00:29:27;;;;;;;;;;;;;;;22.08;52.98;100055.31;2083830;28;19912;-52
2022/06/12 00:30:28;;;;;;;;;;;;;;;22.08;53.10;100055.31;2086252;28;19916;-52
2022/06/12 00:31:29;;;;;;;;;;;;;;;22.08;53.06;100050.66;2085769;28;19924;-52
2022/06/12 00:32:30;;;;;;;;;;;;;;;22.08;52.87;100050.66;2083044;28;19990;-51
2022/06/12 00:33:31;;;;;;;;;;;;;;;22.09;53.00;100054.28;2085130;28;20334;-52
2022/06/12 00:34:34;;;;;;;;;;;;;;;22.08;53.04;100045.19;2085479;28;20134;-52
2022/06/12 00:35:35;;;;;;;;;;;;;;;22.09;52.92;100052.38;2082030;28;19927;-53
2022/06/12 00:36:35;;;;;;;;;;;;;;;22.09;53.13;100055.13;2085334;28;19909;-52
2022/06/12 00:37:37;;;;;;;;;;;;;;;22.09;52.83;100049.63;2085756;28;19986;-53
2022/06/12 00:38:39;;;;;;;;;;;;;;;22.10;52.88;100043.13;2085231;28;19995;-53
2022/06/12 00:39:40;;;;;;;;;;;;;;;22.10;52.89;100054.09;2083615;28;19931;-53
2022/06/12 00:40:41;;;;;;;;;;;;;;;22.10;52.73;100056.84;2086467;28;19966;-52
2022/06/12 00:41:42;;;;;;;;;;;;;;;22.09;52.86;100041.41;2083391;28;20174;-52
2022/06/12 00:42:47;;;;;;;;;;;;;;;22.11;52.65;100058.56;2074470;28;19917;-52
2022/06/12 00:43:47;;;;;;;;;;;;;;;22.10;52.80;100048.63;2078590;28;20335;-52
2022/06/12 00:44:48;;;;;;;;;;;;;;;22.10;53.01;100054.09;2086945;28;19932;-53
2022/06/12 00:45:50;;;;;;;;;;;;;;;22.10;52.91;100048.63;2082259;28;20230;-52
2022/06/12 00:46:53;;;;;;;;;;;;;;;22.11;52.73;100043.97;2088298;28;20663;-51
2022/06/12 00:47:57;;;;;;;;;;;;;;;22.11;52.71;100043.97;2088563;28;19923;-53
2022/06/12 00:48:57;;;;;;;;;;;;;;;22.10;52.74;100036.75;2089996;28;19923;-52
2022/06/12 00:49:59;;;;;;;;;;;;;;;22.10;53.04;100048.63;2087049;28;19908;-53
2022/06/12 00:51:02;;;;;;;;;;;;;;;22.09;52.88;100052.38;2087673;28;19913;-52
2022/06/12 00:52:23;;;;;;;;;;;;;;;22.10;52.88;100053.22;2078175;28;20426;-52
2022/06/12 00:53:26;;;;;;;;;;;;;;;22.10;52.87;100045.00;2076123;28;19916;-51
2022/06/12 00:54:26;;;;;;;;;;;;;;;22.10;53.09;100056.84;2080489;28;20393;-52
2022/06/12 00:55:38;;;;;;;;;;;;;;;22.09;53.05;100052.38;2083418;28;20292;-53
2022/06/12 00:56:42;;;;;;;;;;;;;;;22.10;53.16;100047.75;2087007;28;20171;-51
2022/06/12 00:57:43;;;;;;;;;;;;;;;22.09;53.19;100046.03;2083900;28;19955;-53
2022/06/12 00:58:46;;;;;;;;;;;;;;;22.09;53.14;100043.28;2085127;28;19916;-52
2022/06/12 00:59:51;;;;;;;;;;;;;;;22.08;53.11;100045.19;2085291;28;20003;-52
2022/06/12 01:00:52;;;;;;;;;;;;;;;22.08;53.31;100044.34;2082170;28;20624;-52
2022/06/12 01:01:53;;;;;;;;;;;;;;;22.08;53.02;100056.16;2084420;28;20258;-52
2022/06/12 01:02:53;;;;;;;;;;;;;;;22.09;53.11;100043.28;2086813;28;19916;-52
2022/06/12 01:06:33;;;;;;;;;;;;;;;22.10;52.98;100055.97;2085993;28;19916;-51
2022/06/12 01:07:53;;;;;;;;;;;;;;;22.10;52.87;100059.59;2084972;28;20587;-53
2022/06/12 01:08:54;;;;;;;;;;;;;;;22.10;53.13;100056.84;2077190;28;19917;-53
2022/06/12 01:09:55;;;;;;;;;;;;;;;22.10;53.03;100054.09;2081669;28;20273;-53
2022/06/12 01:11:00;;;;;;;;;;;;;;;22.11;52.93;100058.56;2084726;28;19917;-52
2022/06/12 01:12:01;;;;;;;;;;;;;;;22.11;53.07;100055.81;2084602;28;19924;-53
2022/06/12 01:13:05;;;;;;;;;;;;;;;22.11;53.05;100061.31;2085009;28;19920;-52
2022/06/12 01:14:07;;;;;;;;;;;;;;;22.12;52.99;100057.56;2083752;28;19923;-52
2022/06/12 01:15:10;;;;;;;;;;;;;;;22.12;52.99;100062.16;2078157;28;20345;-52
2022/06/12 01:16:14;;;;;;;;;;;;;;;22.11;53.09;100055.81;2081673;28;20356;-53
2022/06/12 01:17:15;;;;;;;;;;;;;;;22.12;52.71;100057.56;2082039;28;19913;-52
2022/06/12 01:18:17;;;;;;;;;;;;;;;22.12;52.81;100062.16;2086360;28;19966;-53
2022/06/12 01:19:40;;;;;;;;;;;;;;;22.11;52.87;100058.56;2075860;28;19913;-53
2022/06/12 01:20:49;;;;;;;;;;;;;;;22.11;52.76;100065.94;2077403;28;19909;-52
2022/06/12 01:22:08;;;;;;;;;;;;;;;22.12;52.96;100062.16;2083827;28;20521;-52
2022/06/12 01:23:26;;;;;;;;;;;;;;;22.11;52.78;100061.31;2091743;28;19916;-52
2022/06/12 01:24:38;;;;;;;;;;;;;;;22.11;52.96;100061.31;2085892;28;20559;-53
2022/06/12 01:25:54;;;;;;;;;;;;;;;22.11;52.94;100066.78;2083313;28;19996;-53
2022/06/12 01:27:24;;;;;;;;;;;;;;;22.11;52.80;100064.03;2084916;28;19928;-53
2022/06/12 01:28:33;;;;;;;;;;;;;;;22.11;52.85;100069.53;2067518;28;19917;-52
2022/06/12 01:29:36;;;;;;;;;;;;;;;22.11;52.95;100071.44;2075827;28;19963;-52
2022/06/12 01:30:41;;;;;;;;;;;;;;;22.10;53.03;100070.59;2076074;28;19916;-52
2022/06/12 01:31:46;;;;;;;;;;;;;;;22.11;53.15;100076.94;2079698;28;20234;-53
2022/06/12 01:33:22;;;;;;;;;;;;;;;22.10;53.32;100070.59;2077718;28;20271;-52
2022/06/12 01:34:41;;;;;;;;;;;;;;;22.10;53.21;100076.06;2057970;28;20550;-52
2022/06/12 01:35:46;;;;;;;;;;;;;;;22.10;53.06;100075.19;2058870;28;19936;-53
2022/06/12 01:36:52;;;;;;;;;;;;;;;22.10;53.03;100081.56;2068084;28;19972;-52
2022/06/12 01:38:03;;;;;;;;;;;;;;;22.10;53.12;100081.56;2084910;28;20018;-52
2022/06/12 01:39:06;;;;;;;;;;;;;;;22.10;53.02;100087.06;2077154;28;20092;-52
2022/06/12 01:40:16;;;;;;;;;;;;;;;22.11;52.97;100079.66;2086808;28;20410;-52
2022/06/12 01:41:19;;;;;;;;;;;;;;;22.10;53.15;100081.56;2080588;28;19912;-51
2022/06/12 01:42:31;;;;;;;;;;;;;;;22.11;52.88;100072.28;2082218;28;20214;-52
2022/06/12 01:43:36;;;;;;;;;;;;;;;22.12;52.92;100070.38;2079855;28;19920;-52
2022/06/12 01:44:45;;;;;;;;;;;;;;;22.11;53.17;100071.44;2084830;28;19924;-52
2022/06/12 01:46:09;;;;;;;;;;;;;;;22.11;53.07;100071.44;2086290;28;20338;-52
2022/06/12 01:47:12;;;;;;;;;;;;;;;22.11;52.99;100069.53;2080633;28;19922;-53
2022/06/12 01:48:12;;;;;;;;;;;;;;;22.12;52.91;100068.53;2084143;28;20289;-52
2022/06/12 01:49:24;;;;;;;;;;;;;;;22.12;53.09;100074.03;2088011;28;19954;-53
2022/06/12 01:50:36;;;;;;;;;;;;;;;22.12;52.95;100079.50;2089139;28;19927;-52
2022/06/12 01:51:56;;;;;;;;;;;;;;;22.12;53.02;100068.53;2091824;28;20366;-53
2022/06/12 01:53:13;;;;;;;;;;;;;;;22.13;52.96;100072.13;2088366;28;19912;-52
2022/06/12 01:54:29;;;;;;;;;;;;;;;22.12;52.87;100071.28;2086319;28;19932;-52
2022/06/12 01:55:30;;;;;;;;;;;;;;;22.12;52.93;100073.13;2088250;28;20027;-52
2022/06/12 01:56:56;;;;;;;;;;;;;;;22.14;52.91;100082.06;2086027;28;19986;-53
2022/06/12 01:58:07;;;;;;;;;;;;;;;22.13;52.88;100080.38;2084277;28;19993;-52
2022/06/12 01:59:21;;;;;;;;;;;;;;;22.11;52.84;100075.03;2085631;28;19945;-50
2022/06/12 02:00:22;;;;;;;;;;;;;;;22.12;52.99;100076.75;2079058;28;19916;-52
2022/06/12 02:01:32;;;;;;;;;;;;;;;22.11;52.95;100083.25;2080468;28;19916;-52
2022/06/12 02:02:38;;;;;;;;;;;;;;;22.11;53.10;100077.78;2084905;28;20432;-52
2022/06/12 02:03:47;;;;;;;;;;;;;;;22.11;53.05;100083.25;2078578;28;19917;-52
2022/06/12 02:05:05;;;;;;;;;;;;;;;22.11;53.24;100082.41;2079955;28;19987;-52
2022/06/12 02:06:29;;;;;;;;;;;;;;;22.11;53.11;100077.78;2084098;28;20033;-52
2022/06/12 02:07:33;;;;;;;;;;;;;;;22.10;53.15;100078.81;2076597;28;19954;-52
2022/06/12 02:08:36;;;;;;;;;;;;;;;22.10;53.09;100081.56;2085199;28;19916;-52
2022/06/12 02:09:57;;;;;;;;;;;;;;;22.10;53.26;100084.31;2085321;28;19920;-52
2022/06/12 02:13:56;;;;;;;;;;;;;;;22.11;53.18;100068.69;2083917;28;20265;-52
2022/06/12 02:15:01;;;;;;;;;;;;;;;22.10;53.15;100070.59;2087369;28;20668;-52
2022/06/12 02:16:11;;;;;;;;;;;;;;;22.11;52.92;100072.28;2085493;28;19947;-53
2022/06/12 02:17:15;;;;;;;;;;;;;;;22.12;52.93;100084.13;2082775;28;20831;-52
2022/06/12 02:18:16;;;;;;;;;;;;;;;22.11;53.09;100083.25;2078454;28;19944;-53
2022/06/12 02:19:19;;;;;;;;;;;;;;;22.12;53.22;100085.00;2077811;28;20791;-52
2022/06/12 02:20:22;;;;;;;;;;;;;;;22.11;53.32;100088.75;2078265;28;19909;-53
2022/06/12 02:21:28;;;;;;;;;;;;;;;22.13;53.03;100085.84;2079200;28;19955;-53
2022/06/12 02:22:28;;;;;;;;;;;;;;;22.13;53.23;100077.63;2078464;28;19931;-53
2022/06/12 02:23:32;;;;;;;;;;;;;;;22.12;52.95;100085.00;2078252;28;20281;-53
2022/06/12 02:24:43;;;;;;;;;;;;;;;22.13;53.07;100085.84;2086776;28;19967;-53
2022/06/12 02:25:46;;;;;;;;;;;;;;;22.13;53.09;100086.72;2085855;28;20058;-52
2022/06/12 02:26:46;;;;;;;;;;;;;;;22.13;52.88;100085.84;2082676;28;19917;-53
2022/06/12 02:27:49;;;;;;;;;;;;;;;22.13;52.97;100092.19;2077958;28;19917;-53
2022/06/12 02:28:58;;;;;;;;;;;;;;;22.12;52.99;100090.50;2077904;28;20776;-53
2022/06/12 02:30:06;;;;;;;;;;;;;;;22.13;52.98;100097.69;2077620;28;19921;-52
2022/06/12 02:31:10;;;;;;;;;;;;;;;22.13;53.01;100103.19;2077780;28;20350;-53
2022/06/12 02:32:17;;;;;;;;;;;;;;;22.13;53.10;100107.81;2077352;28;19916;-51
2022/06/12 02:33:23;;;;;;;;;;;;;;;22.12;53.17;100101.47;2087054;28;20378;-52
2022/06/12 02:34:27;;;;;;;;;;;;;;;22.12;53.08;100103.34;2085334;28;19924;-50
2022/06/12 02:35:41;;;;;;;;;;;;;;;22.13;53.01;100108.66;2077685;28;19923;-52
2022/06/12 02:36:45;;;;;;;;;;;;;;;22.12;53.33;100106.06;2081626;28;19924;-52
2022/06/12 02:37:51;;;;;;;;;;;;;;;22.12;53.05;100100.59;2083964;28;20007;-53
2022/06/12 02:39:04;;;;;;;;;;;;;;;22.12;53.26;100106.97;2078415;28;20312;-53
2022/06/12 02:40:10;;;;;;;;;;;;;;;22.11;53.13;100104.38;2084392;28;19916;-53
2022/06/12 02:41:19;;;;;;;;;;;;;;;22.12;53.34;100106.06;2084331;28;19916;-52
2022/06/12 02:42:42;;;;;;;;;;;;;;;22.10;53.21;100106.25;2077887;28;19921;-48
2022/06/12 02:43:44;;;;;;;;;;;;;;;22.11;53.24;100104.38;2077539;28;19967;-50
2022/06/12 02:44:54;;;;;;;;;;;;;;;22.11;53.00;100104.38;2082517;28;19955;-51
2022/06/12 02:45:58;;;;;;;;;;;;;;;22.11;53.35;100105.22;2085470;28;19917;-51
2022/06/12 02:47:07;;;;;;;;;;;;;;;22.11;53.34;100105.22;2086600;28;19923;-52
2022/06/12 02:48:08;;;;;;;;;;;;;;;22.11;53.19;100099.72;2083943;28;20222;-53
2022/06/12 02:49:09;;;;;;;;;;;;;;;22.12;53.23;100095.97;2083885;28;19909;-52
2022/06/12 02:50:11;;;;;;;;;;;;;;;22.11;53.11;100088.75;2085634;28;19909;-53
2022/06/12 02:51:30;;;;;;;;;;;;;;;22.13;53.09;100091.34;2082925;28;20216;-53
2022/06/12 02:52:53;;;;;;;;;;;;;;;22.12;53.16;100087.75;2086246;28;19920;-52
2022/06/12 02:53:59;;;;;;;;;;;;;;;22.12;53.11;100082.25;2075943;28;20284;-53
2022/06/12 02:55:08;;;;;;;;;;;;;;;22.12;53.16;100079.50;2089069;28;20144;-51
2022/06/12 02:56:13;;;;;;;;;;;;;;;22.12;53.18;100079.50;2085601;28;19923;-51
2022/06/12 02:57:35;;;;;;;;;;;;;;;22.13;53.10;100074.88;2092724;28;19922;-52
2022/06/12 02:58:45;;;;;;;;;;;;;;;22.12;53.04;100074.03;2085163;28;20271;-52
2022/06/12 02:59:59;;;;;;;;;;;;;;;22.13;53.13;100074.88;2089249;28;19938;-52
2022/06/12 03:01:02;;;;;;;;;;;;;;;22.13;53.04;100072.13;2085423;28;19994;-52
2022/06/12 03:02:09;;;;;;;;;;;;;;;22.13;53.08;100080.38;2084489;28;19959;-52
2022/06/12 03:03:36;;;;;;;;;;;;;;;22.13;53.25;100075.72;2084161;28;19916;-52
2022/06/12 03:04:36;;;;;;;;;;;;;;;22.12;52.98;100074.03;2074969;28;19923;-53
2022/06/12 03:05:39;;;;;;;;;;;;;;;22.13;53.03;100069.38;2076596;28;19951;-53
2022/06/12 03:06:40;;;;;;;;;;;;;;;22.13;53.26;100070.22;2077985;28;19917;-52
2022/06/12 03:07:40;;;;;;;;;;;;;;;22.12;53.05;100067.66;2084986;28;19917;-52
2022/06/12 03:08:43;;;;;;;;;;;;;;;22.12;53.27;100074.03;2081246;28;20330;-50
2022/06/12 03:09:43;;;;;;;;;;;;;;;22.12;53.14;100068.53;2077472;28;19909;-51
2022/06/12 03:10:46;;;;;;;;;;;;;;;22.12;53.16;100074.03;2078080;28;20527;-52
2022/06/12 03:11:48;;;;;;;;;;;;;;;22.11;53.31;100077.78;2078536;28;19923;-51
2022/06/12 03:12:50;;;;;;;;;;;;;;;22.12;53.22;100068.53;2078022;28;19943;-53
2022/06/12 03:13:52;;;;;;;;;;;;;;;22.11;53.44;100076.94;2083654;28;19932;-52
2022/06/12 03:14:52;;;;;;;;;;;;;;;22.11;53.26;100072.28;2086139;28;20070;-52
2022/06/12 03:15:55;;;;;;;;;;;;;;;22.11;53.27;100069.53;2084203;28;19991;-53
2022/06/12 03:16:55;;;;;;;;;;;;;;;22.11;53.40;100077.78;2084616;28;19921;-53
2022/06/12 03:17:56;;;;;;;;;;;;;;;22.10;53.33;100070.59;2085151;28;20005;-51
2022/06/12 03:19:00;;;;;;;;;;;;;;;22.11;53.48;100076.94;2078509;28;19932;-53
2022/06/12 03:20:01;;;;;;;;;;;;;;;22.11;53.31;100080.53;2075181;28;19905;-52
2022/06/12 03:21:05;;;;;;;;;;;;;;;22.11;53.40;100082.41;2085800;28;19939;-52
2022/06/12 03:22:12;;;;;;;;;;;;;;;22.11;53.39;100079.66;2085724;28;19927;-53
2022/06/12 03:23:32;;;;;;;;;;;;;;;22.12;53.35;100095.97;2085225;28;20182;-53
2022/06/12 03:24:46;;;;;;;;;;;;;;;22.11;53.33;100094.25;2092400;28;20188;-53
2022/06/12 03:25:51;;;;;;;;;;;;;;;22.12;53.12;100092.34;2077640;28;19915;-52
2022/06/12 03:27:10;;;;;;;;;;;;;;;22.13;53.29;100092.19;2082659;28;19966;-53
2022/06/12 03:28:36;;;;;;;;;;;;;;;22.12;53.40;100087.75;2085719;28;20606;-53
2022/06/12 03:29:52;;;;;;;;;;;;;;;22.13;53.23;100091.34;2086882;28;19923;-51
2022/06/12 03:30:57;;;;;;;;;;;;;;;22.13;53.44;100092.19;2094445;28;19916;-52
2022/06/12 03:31:57;;;;;;;;;;;;;;;22.13;53.38;100100.44;2084002;28;20013;-52
2022/06/12 03:33:03;;;;;;;;;;;;;;;22.13;53.38;100102.31;2083623;28;19966;-53
2022/06/12 03:34:29;;;;;;;;;;;;;;;22.13;53.16;100103.19;2075406;28;20226;-53
2022/06/12 03:35:38;;;;;;;;;;;;;;;22.14;53.06;100104.88;2079570;28;19941;-53
2022/06/12 03:36:43;;;;;;;;;;;;;;;22.13;53.07;100114.16;2071881;28;19917;-53
2022/06/12 03:37:43;;;;;;;;;;;;;;;22.14;53.16;100104.88;2078583;28;19909;-52
2022/06/12 03:38:52;;;;;;;;;;;;;;;22.13;53.19;100110.56;2086062;28;19920;-53
2022/06/12 03:40:01;;;;;;;;;;;;;;;22.14;53.13;100113.13;2082977;28;19948;-53
2022/06/12 03:41:21;;;;;;;;;;;;;;;22.12;53.37;100112.44;2082803;28;19959;-53
2022/06/12 03:42:41;;;;;;;;;;;;;;;22.13;53.37;100116.91;2076994;28;19937;-53
2022/06/12 03:43:55;;;;;;;;;;;;;;;22.13;53.32;100119.66;2077607;28;20319;-52
2022/06/12 03:45:01;;;;;;;;;;;;;;;22.13;53.50;100118.78;2079431;28;19936;-53
2022/06/12 03:46:02;;;;;;;;;;;;;;;22.12;53.32;100117.94;2076649;28;20315;-53
2022/06/12 03:47:12;;;;;;;;;;;;;;;22.12;53.48;100115.19;2078228;28;19984;-53
2022/06/12 03:48:26;;;;;;;;;;;;;;;22.12;53.33;100120.69;2079871;28;19916;-53
2022/06/12 03:49:32;;;;;;;;;;;;;;;22.12;53.41;100117.94;2077496;28;19980;-52
2022/06/12 03:50:35;;;;;;;;;;;;;;;22.12;53.47;100112.44;2083128;28;19938;-52
2022/06/12 03:51:41;;;;;;;;;;;;;;;22.10;53.54;100114.50;2085643;28;19946;-52
2022/06/12 03:52:41;;;;;;;;;;;;;;;22.12;53.65;100117.06;2083738;28;19974;-52
2022/06/12 03:53:53;;;;;;;;;;;;;;;22.11;53.55;100118.94;2082293;28;19908;-52
2022/06/12 03:54:56;;;;;;;;;;;;;;;22.12;53.39;100123.44;2085280;28;19913;-52
2022/06/12 03:58:56;;;;;;;;;;;;;;;22.12;53.33;100139.91;2079033;28;19921;-52
2022/06/12 04:00:00;;;;;;;;;;;;;;;22.13;53.54;100140.75;2078424;28;19920;-52
2022/06/12 04:01:01;;;;;;;;;;;;;;;22.13;53.38;100138.00;2083332;28;20038;-52
2022/06/12 04:02:03;;;;;;;;;;;;;;;22.12;53.43;100134.41;2084288;28;20448;-52
2022/06/12 04:03:10;;;;;;;;;;;;;;;22.14;53.36;100139.72;2081315;28;19916;-53
2022/06/12 04:04:12;;;;;;;;;;;;;;;22.13;53.47;100135.25;2084043;28;19912;-52
2022/06/12 04:05:20;;;;;;;;;;;;;;;22.13;53.31;100149.84;2083715;28;20108;-53
2022/06/12 04:06:22;;;;;;;;;;;;;;;22.14;53.36;100153.44;2080360;28;19917;-52
2022/06/12 04:07:25;;;;;;;;;;;;;;;22.13;53.54;100141.59;2085029;28;19916;-53
2022/06/12 04:08:38;;;;;;;;;;;;;;;22.14;53.25;100153.44;2085787;28;19916;-52
2022/06/12 04:09:41;;;;;;;;;;;;;;;22.13;53.22;100155.34;2079184;28;19917;-53
2022/06/12 04:10:42;;;;;;;;;;;;;;;22.13;53.10;100158.09;2083425;28;19966;-52
2022/06/12 04:11:44;;;;;;;;;;;;;;;22.13;53.47;100155.34;2080646;28;20372;-53
2022/06/12 04:12:45;;;;;;;;;;;;;;;22.14;53.15;100165.28;2085307;28;20356;-52
2022/06/12 04:13:46;;;;;;;;;;;;;;;22.14;53.40;100159.78;2084368;28;20204;-53
2022/06/12 04:14:52;;;;;;;;;;;;;;;22.13;53.17;100157.22;2085188;28;20268;-51
2022/06/12 04:16:02;;;;;;;;;;;;;;;22.13;53.25;100163.56;2084840;28;20468;-53
2022/06/12 04:17:04;;;;;;;;;;;;;;;22.13;53.46;100168.22;2081152;28;19935;-53
2022/06/12 04:18:05;;;;;;;;;;;;;;;22.12;53.22;100167.34;2084708;28;20011;-53
2022/06/12 04:19:07;;;;;;;;;;;;;;;22.13;53.22;100162.72;2084030;28;19923;-53
2022/06/12 04:20:20;;;;;;;;;;;;;;;22.12;53.65;100160.97;2084515;28;19916;-51
2022/06/12 04:21:34;;;;;;;;;;;;;;;22.12;53.46;100161.88;2085657;28;20223;-52
2022/06/12 04:22:51;;;;;;;;;;;;;;;22.12;53.69;100161.88;2077235;28;19921;-52
2022/06/12 04:23:51;;;;;;;;;;;;;;;22.12;53.49;100163.72;2081902;28;19916;-52
2022/06/12 04:24:58;;;;;;;;;;;;;;;22.11;53.52;100165.63;2082929;28;19916;-50
2022/06/12 04:26:04;;;;;;;;;;;;;;;22.12;53.67;100166.47;2077313;28;19917;-53
2022/06/12 04:27:04;;;;;;;;;;;;;;;22.12;53.52;100171.97;2079505;28;20050;-52
2022/06/12 04:28:06;;;;;;;;;;;;;;;22.12;53.54;100175.59;2079429;28;20831;-52
2022/06/12 04:29:12;;;;;;;;;;;;;;;22.12;53.42;100171.97;2076662;28;19913;-53
2022/06/12 04:30:24;;;;;;;;;;;;;;;22.13;53.63;100173.69;2078988;28;19927;-52
2022/06/12 04:31:27;;;;;;;;;;;;;;;22.12;53.64;100167.34;2060229;28;20431;-53
2022/06/12 04:32:28;;;;;;;;;;;;;;;22.12;53.57;100167.34;2069298;28;19917;-52
2022/06/12 04:33:47;;;;;;;;;;;;;;;22.12;53.39;100170.09;2079131;28;20026;-52
2022/06/12 04:34:48;;;;;;;;;;;;;;;22.12;53.42;100170.09;2077605;28;19913;-52
2022/06/12 04:35:50;;;;;;;;;;;;;;;22.13;53.63;100173.69;2077174;28;20339;-52
2022/06/12 04:36:57;;;;;;;;;;;;;;;22.12;53.43;100175.59;2086012;28;19917;-52
2022/06/12 04:37:58;;;;;;;;;;;;;;;22.12;53.36;100169.22;2083642;28;19939;-52
2022/06/12 04:38:58;;;;;;;;;;;;;;;22.13;53.40;100169.06;2077004;28;19923;-52
2022/06/12 04:40:00;;;;;;;;;;;;;;;22.13;53.44;100174.56;2077254;28;19905;-53
2022/06/12 04:41:01;;;;;;;;;;;;;;;22.14;53.55;100179.00;2077411;28;20232;-52
2022/06/12 04:42:02;;;;;;;;;;;;;;;22.12;53.50;100172.84;2079997;28;20018;-53
2022/06/12 04:43:02;;;;;;;;;;;;;;;22.13;53.32;100174.56;2079294;28;19916;-53
2022/06/12 04:44:07;;;;;;;;;;;;;;;22.14;53.46;100178.16;2084080;28;19917;-53
2022/06/12 04:45:07;;;;;;;;;;;;;;;22.13;53.36;100166.31;2077393;28;19989;-53
2022/06/12 04:46:07;;;;;;;;;;;;;;;22.13;53.47;100174.56;2076843;28;21039;-52
2022/06/12 04:47:11;;;;;;;;;;;;;;;22.14;53.41;100175.41;2077041;28;19944;-52
2022/06/12 04:48:20;;;;;;;;;;;;;;;22.13;53.32;100180.03;2085789;28;20125;-52
2022/06/12 04:49:25;;;;;;;;;;;;;;;22.13;53.21;100179.19;2085763;28;19920;-53
2022/06/12 04:50:26;;;;;;;;;;;;;;;22.13;53.31;100188.28;2091022;28;19927;-53
2022/06/12 04:51:26;;;;;;;;;;;;;;;22.12;53.33;100189.31;2087864;28;19912;-52
2022/06/12 04:52:27;;;;;;;;;;;;;;;22.13;53.58;100184.69;2082282;28;19958;-53
2022/06/12 04:53:28;;;;;;;;;;;;;;;22.12;53.65;100189.31;2084602;28;19908;-52
2022/06/12 04:54:29;;;;;;;;;;;;;;;22.12;53.57;100192.06;2084031;28;19916;-52
2022/06/12 04:55:32;;;;;;;;;;;;;;;22.12;53.82;100189.31;2086525;28;20774;-53
2022/06/12 04:56:34;;;;;;;;;;;;;;;22.11;53.66;100197.72;2088798;28;19915;-52
2022/06/12 04:57:34;;;;;;;;;;;;;;;22.12;53.74;100193.94;2086542;28;20618;-53
2022/06/12 04:58:35;;;;;;;;;;;;;;;22.12;53.47;100204.91;2086598;28;19924;-52
2022/06/12 04:59:36;;;;;;;;;;;;;;;22.11;53.58;100204.06;2084170;28;19916;-53
2022/06/12 05:00:36;;;;;;;;;;;;;;;22.12;53.57;100200.31;2085347;28;20011;-53
2022/06/12 05:01:36;;;;;;;;;;;;;;;22.11;53.46;100205.94;2087750;28;19917;-53
2022/06/12 05:02:36;;;;;;;;;;;;;;;22.12;53.71;100210.41;2084397;28;19927;-53
2022/06/12 05:03:37;;;;;;;;;;;;;;;22.12;53.66;100211.28;2084078;28;19994;-52
2022/06/12 05:04:38;;;;;;;;;;;;;;;22.11;53.75;100204.06;2084968;28;19908;-53
2022/06/12 05:05:40;;;;;;;;;;;;;;;22.12;53.56;100203.03;2079060;28;19966;-52
2022/06/12 05:06:41;;;;;;;;;;;;;;;22.12;53.63;100203.03;2090789;28;19908;-52
2022/06/12 05:07:41;;;;;;;;;;;;;;;22.11;53.81;100206.78;2080280;28;20757;-53
2022/06/12 05:08:42;;;;;;;;;;;;;;;22.12;53.71;100211.28;2085339;28;19924;-51
2022/06/12 05:09:43;;;;;;;;;;;;;;;22.13;53.70;100212.97;2084138;28;19982;-52
2022/06/12 05:10:43;;;;;;;;;;;;;;;22.12;53.55;100216.78;2080545;28;19923;-53
2022/06/12 05:11:43;;;;;;;;;;;;;;;22.12;53.69;100216.78;2085129;28;20016;-52
2022/06/12 05:12:44;;;;;;;;;;;;;;;22.13;53.52;100223.97;2086701;28;19916;-53
2022/06/12 05:13:44;;;;;;;;;;;;;;;22.13;53.66;100217.63;2078655;28;19967;-53
2022/06/12 05:14:44;;;;;;;;;;;;;;;22.14;53.39;100219.34;2076696;28;19917;-52
2022/06/12 05:15:45;;;;;;;;;;;;;;;22.14;53.47;100216.59;2090234;28;19917;-51
2022/06/12 05:16:50;;;;;;;;;;;;;;;22.13;53.53;100217.63;2089815;28;19916;-52
2022/06/12 05:17:51;;;;;;;;;;;;;;;22.13;53.62;100225.88;2085797;28;19909;-52
2022/06/12 05:18:51;;;;;;;;;;;;;;;22.13;53.58;100221.22;2088299;28;20010;-53
2022/06/12 05:19:51;;;;;;;;;;;;;;;22.13;53.41;100223.97;2085253;28;19916;-52
2022/06/12 05:20:52;;;;;;;;;;;;;;;22.13;53.37;100229.47;2086855;28;20457;-52
2022/06/12 05:21:52;;;;;;;;;;;;;;;22.14;53.62;100227.56;2084560;28;19963;-52
2022/06/12 05:22:53;;;;;;;;;;;;;;;22.13;53.58;100229.47;2087260;28;19916;-53
2022/06/12 05:23:53;;;;;;;;;;;;;;;22.13;53.64;100229.47;2086444;28;19916;-52
2022/06/12 05:24:54;;;;;;;;;;;;;;;22.13;53.65;100234.09;2087170;28;20209;-52
2022/06/12 05:25:54;;;;;;;;;;;;;;;22.12;53.46;100230.50;2086586;28;20397;-52
2022/06/12 05:26:55;;;;;;;;;;;;;;;22.13;53.71;100236.84;2087868;28;20350;-53
2022/06/12 05:27:55;;;;;;;;;;;;;;;22.13;53.72;100236.84;2084663;28;19924;-52
2022/06/12 05:28:56;;;;;;;;;;;;;;;22.12;53.66;100225.00;2086571;28;19917;-52
2022/06/12 05:29:56;;;;;;;;;;;;;;;22.12;53.57;100227.75;2083114;28;19928;-52
2022/06/12 05:30:56;;;;;;;;;;;;;;;22.12;53.86;100227.75;2087804;28;20006;-53
2022/06/12 05:31:57;;;;;;;;;;;;;;;22.11;53.89;100217.78;2083486;28;20128;-54
2022/06/12 05:32:59;;;;;;;;;;;;;;;22.11;53.82;100220.53;2086421;28;20231;-53
2022/06/12 05:34:00;;;;;;;;;;;;;;;22.11;53.81;100217.78;2070054;28;19996;-52
2022/06/12 05:35:00;;;;;;;;;;;;;;;22.11;53.73;100226.00;2077093;28;20219;-53
2022/06/12 05:36:00;;;;;;;;;;;;;;;22.11;53.96;100226.00;2093542;28;19920;-52
2022/06/12 05:37:01;;;;;;;;;;;;;;;22.12;53.91;100226.88;2085360;28;19924;-52
2022/06/12 05:38:01;;;;;;;;;;;;;;;22.10;53.81;100224.31;2086393;28;19921;-53
2022/06/12 05:39:02;;;;;;;;;;;;;;;22.11;53.74;100231.50;2095234;28;19951;-53
2022/06/12 05:40:04;;;;;;;;;;;;;;;22.12;53.87;100232.34;2089679;28;20353;-52
2022/06/12 05:41:04;;;;;;;;;;;;;;;22.12;53.70;100233.25;2090623;28;19993;-52
2022/06/12 05:42:04;;;;;;;;;;;;;;;22.12;53.79;100230.50;2095273;28;20358;-52
2022/06/12 05:43:05;;;;;;;;;;;;;;;22.13;53.74;100223.97;2090836;28;19969;-52